Time;durP1;ratioP1;P1;durP2;ratioP2;P2;SDS_P1;SDS_P2;PMS_P1;PMS_P2;Temp;Humidity;BMP_temperature;BMP_pressure;BME280_temperature;BME280_humidity;BME280_pressure;Samples;Min_cycle;Max_cycle;Signal;HPM_P1;HPM_P2
2022/08/26 00:01:19;;;;;;;5.85;2.17;;;;;;;;;;4950571;28;20067;-76
2022/08/26 00:03:45;;;;;;;6.40;2.35;;;;;;;;;;4955466;28;20031;-76
2022/08/26 00:06:11;;;;;;;5.00;3.08;;;;;;;;;;4950476;28;20525;-77
2022/08/26 00:08:37;;;;;;;3.85;2.20;;;;;;;;;;4949282;28;20074;-77
2022/08/26 00:11:03;;;;;;;5.32;2.38;;;;;;;;;;4965967;28;20026;-77
2022/08/26 00:13:29;;;;;;;4.70;2.22;;;;;;;;;;4951566;28;20051;-77
2022/08/26 00:15:56;;;;;;;9.43;2.50;;;;;;;;;;4949562;28;20035;-76
2022/08/26 00:18:22;;;;;;;8.90;3.30;;;;;;;;;;4948539;28;20435;-77
2022/08/26 00:20:48;;;;;;;5.32;2.40;;;;;;;;;;4965559;28;20034;-76
2022/08/26 00:23:14;;;;;;;5.85;2.72;;;;;;;;;;4950545;28;20071;-76
2022/08/26 00:25:40;;;;;;;8.18;3.33;;;;;;;;;;4950330;28;20031;-77
2022/08/26 00:28:07;;;;;;;12.45;2.90;;;;;;;;;;4953444;28;20078;-77
2022/08/26 00:30:33;;;;;;;10.57;2.53;;;;;;;;;;4949168;28;20042;-76
2022/08/26 00:32:59;;;;;;;4.80;2.38;;;;;;;;;;4950856;28;20037;-76
2022/08/26 00:35:26;;;;;;;6.53;2.50;;;;;;;;;;4955881;28;20033;-77
2022/08/26 00:37:53;;;;;;;5.40;3.25;;;;;;;;;;4949280;28;20385;-76
2022/08/26 00:40:22;;;;;;;4.32;2.70;;;;;;;;;;4955956;28;20018;-76
2022/08/26 00:42:48;;;;;;;3.65;2.90;;;;;;;;;;4951293;28;20086;-77
2022/08/26 00:45:15;;;;;;;6.30;2.70;;;;;;;;;;4949089;28;20126;-76
2022/08/26 00:47:46;;;;;;;8.05;2.90;;;;;;;;;;4951763;28;20512;-76
2022/08/26 00:50:14;;;;;;;6.53;3.05;;;;;;;;;;4957861;28;20200;-75
2022/08/26 00:52:41;;;;;;;6.78;2.88;;;;;;;;;;4945213;28;20043;-77
2022/08/26 00:55:14;;;;;;;7.10;4.20;;;;;;;;;;4948945;28;20367;-77
2022/08/26 00:57:41;;;;;;;7.43;2.90;;;;;;;;;;4963395;28;20036;-77
2022/08/26 01:00:09;;;;;;;8.60;2.83;;;;;;;;;;4962443;28;20111;-77
2022/08/26 01:02:35;;;;;;;5.95;2.92;;;;;;;;;;4954763;28;20028;-77
2022/08/26 01:05:03;;;;;;;7.22;3.28;;;;;;;;;;4952371;28;20086;-77
2022/08/26 01:07:30;;;;;;;6.47;2.90;;;;;;;;;;4955598;28;20034;-77
2022/08/26 01:09:58;;;;;;;4.70;3.10;;;;;;;;;;4952820;28;20030;-76
2022/08/26 01:12:25;;;;;;;7.88;3.13;;;;;;;;;;4950577;28;20039;-77
2022/08/26 01:14:51;;;;;;;5.78;3.13;;;;;;;;;;4949325;28;20047;-76
2022/08/26 01:17:17;;;;;;;7.47;3.08;;;;;;;;;;4951347;28;20111;-78
2022/08/26 01:19:52;;;;;;;4.38;2.92;;;;;;;;;;4948129;28;20039;-77
2022/08/26 01:22:21;;;;;;;3.90;3.45;;;;;;;;;;4954697;28;20151;-77
2022/08/26 01:24:47;;;;;;;6.30;3.25;;;;;;;;;;4938199;28;20320;-77
2022/08/26 01:27:16;;;;;;;8.07;2.95;;;;;;;;;;4947547;28;20027;-77
2022/08/26 01:29:43;;;;;;;5.78;2.92;;;;;;;;;;4947102;28;20054;-76
2022/08/26 01:32:10;;;;;;;7.75;3.08;;;;;;;;;;4947337;28;20035;-76
2022/08/26 01:34:38;;;;;;;7.57;3.17;;;;;;;;;;4943666;28;20019;-76
2022/08/26 01:37:15;;;;;;;4.90;2.60;;;;;;;;;;4948931;28;20034;-77
2022/08/26 01:39:41;;;;;;;6.55;2.90;;;;;;;;;;4953646;28;20513;-77
2022/08/26 01:42:09;;;;;;;7.93;2.83;;;;;;;;;;4950897;28;20038;-77
2022/08/26 01:44:39;;;;;;;8.80;3.10;;;;;;;;;;4943312;28;20031;-77
2022/08/26 01:47:06;;;;;;;4.95;2.75;;;;;;;;;;4952339;28;20035;-76
2022/08/26 01:49:34;;;;;;;6.00;2.80;;;;;;;;;;4947089;28;20051;-76
2022/08/26 01:52:02;;;;;;;5.45;3.05;;;;;;;;;;4943804;28;20102;-76
2022/08/26 01:54:28;;;;;;;4.95;3.08;;;;;;;;;;4952320;28;20023;-76
2022/08/26 01:56:54;;;;;;;6.03;3.50;;;;;;;;;;4959610;28;20035;-76
2022/08/26 01:59:23;;;;;;;6.15;2.67;;;;;;;;;;4955826;28;20097;-76
2022/08/26 02:01:49;;;;;;;8.57;3.00;;;;;;;;;;4953401;28;20166;-78
2022/08/26 02:04:15;;;;;;;3.72;2.70;;;;;;;;;;4948380;28;20034;-76
2022/08/26 02:06:42;;;;;;;7.40;3.30;;;;;;;;;;4961168;28;20030;-77
2022/08/26 02:09:08;;;;;;;9.48;2.83;;;;;;;;;;4950940;28;20035;-76
2022/08/26 02:11:34;;;;;;;6.15;2.35;;;;;;;;;;4965243;28;20073;-76
2022/08/26 02:14:03;;;;;;;4.80;2.47;;;;;;;;;;4947402;28;20170;-76
2022/08/26 02:16:32;;;;;;;6.15;2.30;;;;;;;;;;4952331;28;20035;-77
2022/08/26 02:18:59;;;;;;;5.60;2.33;;;;;;;;;;4951498;28;20024;-77
2022/08/26 02:21:25;;;;;;;7.80;2.65;;;;;;;;;;4950643;28;20035;-77
2022/08/26 02:23:52;;;;;;;4.65;2.55;;;;;;;;;;4952542;28;20019;-77
2022/08/26 02:26:21;;;;;;;3.83;2.30;;;;;;;;;;4950033;28;20015;-77
2022/08/26 02:28:58;;;;;;;2.80;2.10;;;;;;;;;;4949544;28;20033;-76
2022/08/26 02:31:24;;;;;;;3.35;2.35;;;;;;;;;;4954768;28;20055;-77
2022/08/26 02:33:50;;;;;;;6.03;2.67;;;;;;;;;;4954843;28;20038;-76
2022/08/26 02:36:21;;;;;;;6.43;2.50;;;;;;;;;;4960774;28;20024;-76
2022/08/26 02:38:47;;;;;;;3.85;2.22;;;;;;;;;;4952064;28;20380;-77
2022/08/26 02:41:13;;;;;;;5.25;2.45;;;;;;;;;;4954230;28;20034;-76
2022/08/26 02:43:39;;;;;;;4.22;2.20;;;;;;;;;;4947977;28;20529;-77
2022/08/26 02:46:05;;;;;;;4.18;2.08;;;;;;;;;;4953061;28;20031;-76
2022/08/26 02:48:31;;;;;;;3.80;2.10;;;;;;;;;;4950130;28;20028;-77
2022/08/26 02:50:59;;;;;;;3.25;2.10;;;;;;;;;;4959835;28;20111;-76
2022/08/26 02:53:25;;;;;;;3.97;2.30;;;;;;;;;;4947828;28;20031;-77
2022/08/26 02:55:51;;;;;;;2.83;2.33;;;;;;;;;;4948343;28;20027;-76
2022/08/26 02:58:17;;;;;;;3.15;2.10;;;;;;;;;;4956853;28;20545;-77
2022/08/26 03:00:46;;;;;;;2.92;2.53;;;;;;;;;;4955022;28;20464;-76
2022/08/26 03:03:12;;;;;;;5.38;2.45;;;;;;;;;;4949074;28;20023;-76
2022/08/26 03:05:38;;;;;;;3.50;2.22;;;;;;;;;;4948472;28;20078;-76
2022/08/26 03:08:05;;;;;;;2.83;1.98;;;;;;;;;;4951637;28;20019;-76
2022/08/26 03:10:31;;;;;;;2.92;2.50;;;;;;;;;;4949346;28;20089;-76
2022/08/26 03:12:59;;;;;;;3.58;2.75;;;;;;;;;;4948644;28;20459;-76
2022/08/26 03:15:25;;;;;;;3.28;2.47;;;;;;;;;;4952347;28;20050;-76
2022/08/26 03:17:51;;;;;;;4.03;2.88;;;;;;;;;;4949873;28;20023;-76
2022/08/26 03:20:17;;;;;;;3.40;2.15;;;;;;;;;;4950757;28;20031;-78
2022/08/26 03:22:44;;;;;;;4.75;2.25;;;;;;;;;;4958938;28;20075;-76
2022/08/26 03:25:12;;;;;;;3.33;2.20;;;;;;;;;;4951770;28;20031;-77
2022/08/26 03:27:38;;;;;;;4.30;2.00;;;;;;;;;;4953050;28;20023;-76
2022/08/26 03:32:50;;;;;;;2.40;1.90;;;;;;;;;;4952818;28;20256;-77
2022/08/26 03:35:16;;;;;;;3.78;1.90;;;;;;;;;;4946685;28;20050;-77
2022/08/26 03:37:42;;;;;;;2.15;1.85;;;;;;;;;;4957476;28;20035;-77
2022/08/26 03:40:09;;;;;;;2.75;1.90;;;;;;;;;;4950517;28;20046;-76
2022/08/26 03:42:36;;;;;;;2.20;2.00;;;;;;;;;;4956874;28;20022;-77
2022/08/26 03:45:03;;;;;;;4.05;2.42;;;;;;;;;;4947349;28;20117;-76
2022/08/26 03:47:30;;;;;;;3.00;2.15;;;;;;;;;;4952428;28;20027;-76
2022/08/26 03:49:58;;;;;;;2.78;2.20;;;;;;;;;;4946918;28;20034;-76
2022/08/26 03:52:24;;;;;;;5.28;3.08;;;;;;;;;;4949936;28;20031;-76
2022/08/26 03:54:50;;;;;;;4.50;2.05;;;;;;;;;;4950049;28;20513;-76
2022/08/26 03:57:16;;;;;;;2.92;1.90;;;;;;;;;;4949947;28;20039;-77
2022/08/26 03:59:42;;;;;;;2.75;2.10;;;;;;;;;;4950514;28;20046;-77
2022/08/26 04:02:08;;;;;;;2.45;2.00;;;;;;;;;;4946402;28;20043;-76
2022/08/26 04:04:35;;;;;;;1.95;1.70;;;;;;;;;;4946786;28;20086;-76
2022/08/26 04:07:01;;;;;;;2.10;1.90;;;;;;;;;;4948089;28;20031;-76
2022/08/26 04:09:27;;;;;;;4.47;2.13;;;;;;;;;;4952528;28;20550;-76
2022/08/26 04:11:54;;;;;;;2.75;1.95;;;;;;;;;;4943817;28;20063;-76
2022/08/26 04:14:21;;;;;;;2.80;1.75;;;;;;;;;;4942126;28;20059;-76
2022/08/26 04:16:47;;;;;;;2.97;1.70;;;;;;;;;;4952846;28;20062;-76
2022/08/26 04:19:15;;;;;;;2.83;1.60;;;;;;;;;;4946383;28;20055;-77
2022/08/26 04:21:42;;;;;;;1.40;1.30;;;;;;;;;;4947687;28;20533;-76
2022/08/26 04:24:09;;;;;;;1.40;1.30;;;;;;;;;;4948954;28;20036;-77
2022/08/26 04:26:36;;;;;;;2.05;1.20;;;;;;;;;;4951501;28;20119;-76
2022/08/26 04:29:04;;;;;;;2.00;1.63;;;;;;;;;;4946724;28;20023;-76
2022/08/26 04:31:30;;;;;;;1.20;1.10;;;;;;;;;;4948056;28;20062;-77
2022/08/26 04:33:56;;;;;;;1.73;1.33;;;;;;;;;;4945132;28;20405;-76
2022/08/26 04:36:22;;;;;;;1.77;1.65;;;;;;;;;;4941612;28;20031;-77
2022/08/26 04:38:49;;;;;;;1.60;1.33;;;;;;;;;;4947095;28;20220;-76
2022/08/26 04:41:16;;;;;;;2.83;1.50;;;;;;;;;;4946378;28;20138;-76
2022/08/26 04:43:42;;;;;;;2.38;1.30;;;;;;;;;;4950334;28;20039;-76
2022/08/26 04:46:10;;;;;;;1.45;1.35;;;;;;;;;;4941701;28;20427;-76
2022/08/26 04:48:36;;;;;;;2.42;1.70;;;;;;;;;;4946550;28;20501;-76
2022/08/26 04:51:03;;;;;;;3.15;2.00;;;;;;;;;;4943782;28;20037;-76
2022/08/26 04:53:30;;;;;;;2.60;1.80;;;;;;;;;;4953445;28;20082;-77
2022/08/26 04:55:56;;;;;;;2.55;2.15;;;;;;;;;;4943155;28;20035;-76
2022/08/26 04:58:23;;;;;;;4.32;2.67;;;;;;;;;;4949892;28;20083;-76
2022/08/26 05:00:50;;;;;;;2.50;2.20;;;;;;;;;;4946802;28;20062;-76
2022/08/26 05:03:16;;;;;;;2.58;2.20;;;;;;;;;;4948621;28;20039;-76
2022/08/26 05:05:43;;;;;;;2.83;2.35;;;;;;;;;;4947534;28;20043;-76
2022/08/26 05:08:10;;;;;;;3.10;2.08;;;;;;;;;;4947594;28;20028;-76
2022/08/26 05:11:03;;;;;;;2.22;1.90;;;;;;;;;;4942040;28;20024;-76
2022/08/26 05:13:29;;;;;;;4.00;2.28;;;;;;;;;;4942076;28;20079;-77
2022/08/26 05:15:55;;;;;;;4.20;2.33;;;;;;;;;;4949766;28;20019;-76
2022/08/26 05:18:23;;;;;;;2.20;1.85;;;;;;;;;;4957718;28;20067;-77
2022/08/26 05:20:51;;;;;;;1.90;1.60;;;;;;;;;;4951845;28;20588;-75
2022/08/26 05:23:17;;;;;;;2.30;2.10;;;;;;;;;;4948467;28;20038;-77
2022/08/26 05:25:45;;;;;;;2.25;1.92;;;;;;;;;;4946056;28;20008;-78
2022/08/26 05:28:12;;;;;;;3.10;1.58;;;;;;;;;;4953078;28;20530;-77
2022/08/26 05:30:39;;;;;;;2.85;1.83;;;;;;;;;;4946311;28;20112;-76
2022/08/26 05:33:05;;;;;;;1.52;1.42;;;;;;;;;;4953786;28;20038;-77
2022/08/26 05:35:33;;;;;;;1.60;1.50;;;;;;;;;;4948621;28;20036;-76
2022/08/26 05:38:04;;;;;;;1.60;1.50;;;;;;;;;;4951820;28;20023;-77
2022/08/26 05:40:33;;;;;;;2.85;1.75;;;;;;;;;;4954170;28;20063;-75
2022/08/26 05:42:59;;;;;;;2.65;1.73;;;;;;;;;;4958788;28;20024;-77
2022/08/26 05:45:25;;;;;;;2.55;1.83;;;;;;;;;;4949763;28;20483;-77
2022/08/26 05:47:51;;;;;;;1.30;1.20;;;;;;;;;;4953553;28;20027;-78
2022/08/26 05:50:22;;;;;;;1.70;1.20;;;;;;;;;;4948794;28;20026;-76
2022/08/26 05:52:51;;;;;;;1.92;1.45;;;;;;;;;;4960138;28;20030;-77
2022/08/26 05:55:18;;;;;;;1.40;1.30;;;;;;;;;;4942472;28;20035;-77
2022/08/26 05:57:44;;;;;;;1.75;1.45;;;;;;;;;;4950533;28;20035;-77
2022/08/26 06:00:11;;;;;;;3.25;1.35;;;;;;;;;;4952555;28;20067;-77
2022/08/26 06:02:38;;;;;;;1.60;1.40;;;;;;;;;;4950629;28;20027;-76
2022/08/26 06:05:04;;;;;;;1.15;1.15;;;;;;;;;;4955900;28;20471;-78
2022/08/26 06:10:15;;;;;;;1.45;1.33;;;;;;;;;;4950813;28;20034;-75
2022/08/26 06:12:42;;;;;;;0.95;0.95;;;;;;;;;;4947926;28;20031;-76
2022/08/26 06:15:08;;;;;;;1.20;1.20;;;;;;;;;;4950096;28;20047;-76
2022/08/26 06:17:34;;;;;;;1.20;1.20;;;;;;;;;;4954466;28;20035;-77
2022/08/26 06:20:00;;;;;;;1.38;1.27;;;;;;;;;;4951459;28;20032;-76
2022/08/26 06:27:56;;;;;;;1.55;1.40;;;;;;;;;;4952258;28;20114;-77
2022/08/26 06:30:22;;;;;;;1.50;1.40;;;;;;;;;;4952494;28;20038;-78
2022/08/26 06:32:48;;;;;;;3.00;1.63;;;;;;;;;;4950576;28;20066;-77
2022/08/26 06:35:14;;;;;;;1.50;1.40;;;;;;;;;;4947622;28;20329;-77
2022/08/26 06:37:41;;;;;;;1.75;1.50;;;;;;;;;;4951034;28;20117;-76
2022/08/26 06:40:08;;;;;;;1.52;1.30;;;;;;;;;;4948081;28;20067;-76
2022/08/26 06:42:34;;;;;;;1.40;1.30;;;;;;;;;;4951549;28;20513;-76
2022/08/26 06:45:00;;;;;;;1.25;1.10;;;;;;;;;;4947363;28;20031;-76
2022/08/26 06:47:27;;;;;;;2.08;1.27;;;;;;;;;;4952647;28;20482;-77
2022/08/26 06:49:53;;;;;;;1.95;1.33;;;;;;;;;;4952284;28;20055;-77
2022/08/26 06:52:19;;;;;;;1.55;1.45;;;;;;;;;;4955124;28;20031;-77
2022/08/26 06:54:45;;;;;;;2.33;1.40;;;;;;;;;;4945047;28;20042;-77
2022/08/26 06:57:11;;;;;;;1.48;1.38;;;;;;;;;;4949810;28;20039;-77
2022/08/26 06:59:37;;;;;;;2.03;1.90;;;;;;;;;;4953948;28;20046;-77
2022/08/26 07:02:04;;;;;;;1.45;1.33;;;;;;;;;;4946344;28;20110;-77
2022/08/26 07:04:31;;;;;;;2.20;1.70;;;;;;;;;;4943097;28;20094;-76
2022/08/26 07:06:58;;;;;;;1.60;1.50;;;;;;;;;;4948223;28;20031;-77
2022/08/26 07:09:27;;;;;;;2.15;1.63;;;;;;;;;;4952960;28;20058;-76
2022/08/26 07:11:55;;;;;;;1.83;1.60;;;;;;;;;;4947039;28;20118;-77
2022/08/26 07:14:21;;;;;;;2.00;1.80;;;;;;;;;;4955235;28;20050;-76
2022/08/26 07:16:47;;;;;;;2.15;1.70;;;;;;;;;;4953059;28;20078;-75
2022/08/26 07:19:14;;;;;;;1.40;1.30;;;;;;;;;;4977613;28;20086;-78
2022/08/26 07:21:41;;;;;;;1.67;1.45;;;;;;;;;;4945388;28;20038;-78
2022/08/26 07:24:07;;;;;;;2.83;1.65;;;;;;;;;;4953489;28;20019;-77
2022/08/26 07:26:33;;;;;;;2.28;1.70;;;;;;;;;;4943094;28;20031;-78
2022/08/26 07:29:00;;;;;;;2.25;1.65;;;;;;;;;;4948913;28;20171;-77
2022/08/26 07:31:27;;;;;;;1.80;1.70;;;;;;;;;;4950195;28;20027;-76
2022/08/26 07:33:53;;;;;;;2.08;1.85;;;;;;;;;;4944678;28;20454;-77
2022/08/26 07:36:21;;;;;;;3.28;1.80;;;;;;;;;;4950540;28;20027;-76
2022/08/26 07:38:47;;;;;;;1.63;1.50;;;;;;;;;;4951087;28;20031;-79
2022/08/26 07:41:14;;;;;;;2.45;1.83;;;;;;;;;;4944993;28;20027;-77
2022/08/26 07:43:41;;;;;;;3.78;2.05;;;;;;;;;;4947407;28;20066;-77
2022/08/26 07:46:07;;;;;;;1.80;1.70;;;;;;;;;;4948487;28;20023;-77
2022/08/26 07:48:34;;;;;;;1.70;1.60;;;;;;;;;;4960457;28;20065;-76
2022/08/26 07:51:00;;;;;;;1.50;1.38;;;;;;;;;;4958575;28;20430;-76
2022/08/26 07:53:27;;;;;;;3.83;1.52;;;;;;;;;;4950982;28;20566;-75
2022/08/26 07:55:53;;;;;;;1.60;1.50;;;;;;;;;;4946532;28;20056;-76
2022/08/26 07:58:19;;;;;;;4.78;2.00;;;;;;;;;;4946235;28;20050;-76
2022/08/26 08:00:46;;;;;;;2.63;1.98;;;;;;;;;;4945849;28;20393;-76
2022/08/26 08:03:13;;;;;;;4.95;2.50;;;;;;;;;;4948966;28;20034;-75
2022/08/26 08:05:39;;;;;;;2.70;1.90;;;;;;;;;;4947592;28;20070;-75
2022/08/26 08:08:08;;;;;;;3.08;1.67;;;;;;;;;;4946974;28;20153;-74
2022/08/26 08:10:35;;;;;;;2.00;1.65;;;;;;;;;;4944913;28;20094;-74
2022/08/26 08:13:02;;;;;;;1.67;1.58;;;;;;;;;;4943689;28;20035;-75
2022/08/26 08:15:29;;;;;;;1.33;1.23;;;;;;;;;;4947834;28;20055;-75
2022/08/26 08:17:56;;;;;;;1.60;1.50;;;;;;;;;;4948947;28;20036;-76
2022/08/26 08:20:23;;;;;;;1.40;1.30;;;;;;;;;;4947784;28;20059;-75
2022/08/26 08:22:49;;;;;;;1.60;1.50;;;;;;;;;;4946114;28;20043;-76
2022/08/26 08:25:15;;;;;;;3.30;1.77;;;;;;;;;;4945361;28;20101;-76
2022/08/26 08:27:43;;;;;;;2.42;1.67;;;;;;;;;;4948495;28;20461;-76
2022/08/26 08:30:10;;;;;;;2.58;1.33;;;;;;;;;;4950007;28;20106;-75
2022/08/26 08:32:37;;;;;;;3.10;1.60;;;;;;;;;;4947110;28;20035;-75
2022/08/26 08:35:04;;;;;;;3.35;1.80;;;;;;;;;;4958775;28;20031;-76
2022/08/26 08:37:30;;;;;;;5.10;2.03;;;;;;;;;;4948114;28;20066;-75
2022/08/26 08:39:56;;;;;;;3.67;2.45;;;;;;;;;;4945151;28;20514;-77
2022/08/26 08:42:23;;;;;;;5.72;2.38;;;;;;;;;;4947078;28;20035;-76
2022/08/26 08:44:49;;;;;;;3.80;1.85;;;;;;;;;;4947673;28;20125;-75
2022/08/26 08:47:32;;;;;;;2.42;1.90;;;;;;;;;;4945565;28;20027;-76
2022/08/26 08:50:00;;;;;;;1.70;1.60;;;;;;;;;;4944041;28;20030;-76
2022/08/26 08:52:27;;;;;;;2.70;1.80;;;;;;;;;;4943813;28;20035;-76
2022/08/26 08:54:54;;;;;;;2.10;1.30;;;;;;;;;;4943810;28;20047;-75
2022/08/26 08:57:30;;;;;;;3.10;1.38;;;;;;;;;;4947427;28;20052;-76
2022/08/26 09:00:11;;;;;;;2.45;1.60;;;;;;;;;;4945444;28;20491;-76
2022/08/26 09:02:56;;;;;;;1.40;1.30;;;;;;;;;;4946785;28;20043;-76
2022/08/26 09:05:22;;;;;;;;;;;;;;;;;;4943777;28;20057;-76
2022/08/26 09:07:51;;;;;;;2.17;1.40;;;;;;;;;;4944056;28;20395;-76
2022/08/26 09:10:18;;;;;;;1.50;1.40;;;;;;;;;;4944622;28;20406;-74
2022/08/26 09:12:45;;;;;;;1.73;1.42;;;;;;;;;;4940531;28;20043;-77
2022/08/26 09:15:23;;;;;;;1.40;1.30;;;;;;;;;;4945217;28;20062;-75
2022/08/26 09:17:49;;;;;;;2.92;1.40;;;;;;;;;;4946126;28;20039;-75
2022/08/26 09:20:35;;;;;;;3.67;1.90;;;;;;;;;;4961072;28;20059;-76
2022/08/26 09:23:02;;;;;;;;;;;;;;;;;;4940724;28;20512;-77
2022/08/26 09:25:30;;;;;;;1.45;1.35;;;;;;;;;;4944274;28;19914;-76
2022/08/26 09:27:59;;;;;;;1.77;1.60;;;;;;;;;;4939390;28;20034;-75
2022/08/26 09:30:34;;;;;;;1.80;1.58;;;;;;;;;;4948594;28;20391;-76
2022/08/26 09:33:02;;;;;;;3.03;1.45;;;;;;;;;;4947128;28;20030;-77
2022/08/26 09:35:34;;;;;;;2.97;1.50;;;;;;;;;;4947054;28;20038;-78
2022/08/26 09:38:00;;;;;;;1.40;1.30;;;;;;;;;;4944702;28;20028;-75
2022/08/26 09:40:31;;;;;;;1.60;1.50;;;;;;;;;;4947549;28;20023;-76
2022/08/26 09:43:21;;;;;;;1.73;1.50;;;;;;;;;;4949130;28;20094;-75
2022/08/26 09:45:53;;;;;;;2.13;1.50;;;;;;;;;;4948994;28;20023;-75
2022/08/26 09:48:32;;;;;;;1.60;1.50;;;;;;;;;;4946572;28;20380;-76
2022/08/26 09:51:00;;;;;;;2.88;2.13;;;;;;;;;;4948520;28;20170;-76
2022/08/26 09:53:29;;;;;;;2.45;1.73;;;;;;;;;;4945262;28;20059;-75
2022/08/26 09:56:14;;;;;;;1.77;1.67;;;;;;;;;;4945336;28;20053;-77
2022/08/26 09:58:41;;;;;;;1.98;1.52;;;;;;;;;;4952098;28;20093;-76
2022/08/26 10:01:13;;;;;;;2.65;1.63;;;;;;;;;;4953207;28;20070;-77
2022/08/26 10:03:40;;;;;;;2.35;1.60;;;;;;;;;;4949987;28;20636;-77
2022/08/26 10:06:27;;;;;;;2.50;1.70;;;;;;;;;;4951970;28;20394;-75
2022/08/26 10:08:55;;;;;;;1.65;1.55;;;;;;;;;;4946601;28;20041;-76
2022/08/26 10:11:33;;;;;;;1.80;1.70;;;;;;;;;;4948389;28;20078;-77
2022/08/26 10:14:03;;;;;;;1.77;1.50;;;;;;;;;;4954168;28;20050;-77
2022/08/26 10:16:39;;;;;;;2.80;1.90;;;;;;;;;;4956576;28;20069;-76
2022/08/26 10:19:08;;;;;;;1.95;1.70;;;;;;;;;;4948114;28;20035;-77
2022/08/26 10:21:40;;;;;;;3.40;1.85;;;;;;;;;;4951866;28;20031;-76
2022/08/26 10:24:07;;;;;;;2.00;1.80;;;;;;;;;;4948104;28;20035;-77
2022/08/26 10:26:48;;;;;;;2.00;1.80;;;;;;;;;;4947201;28;20023;-77
2022/08/26 10:29:37;;;;;;;1.70;1.60;;;;;;;;;;4950904;28;20031;-77
2022/08/26 10:32:11;;;;;;;1.80;1.70;;;;;;;;;;4949949;28;20102;-75
2022/08/26 10:34:37;;;;;;;3.38;1.60;;;;;;;;;;4949974;28;20062;-77
2022/08/26 10:37:07;;;;;;;3.53;1.48;;;;;;;;;;4946175;28;20031;-76
2022/08/26 10:39:38;;;;;;;3.65;1.90;;;;;;;;;;4946465;28;20023;-77
2022/08/26 10:42:09;;;;;;;1.80;1.70;;;;;;;;;;4947279;28;20159;-77
2022/08/26 10:44:37;;;;;;;2.03;1.83;;;;;;;;;;4946376;28;20038;-77
2022/08/26 10:47:08;;;;;;;1.60;1.50;;;;;;;;;;4946352;28;20470;-76
2022/08/26 10:49:34;;;;;;;1.73;1.60;;;;;;;;;;4944147;28;20533;-76
2022/08/26 10:52:13;;;;;;;1.70;1.60;;;;;;;;;;4946061;28;20041;-77
2022/08/26 10:54:54;;;;;;;1.90;1.80;;;;;;;;;;4945775;28;20059;-78
2022/08/26 10:57:26;;;;;;;1.77;1.65;;;;;;;;;;4949684;28;20030;-78
2022/08/26 11:01:40;;;;;;;1.77;1.60;;;;;;;;;;4951025;28;20037;-76
2022/08/26 11:02:49;;;;;;;1.90;1.70;;;;;;;;;;4949912;28;20035;-77
2022/08/26 11:05:18;;;;;;;1.75;1.63;;;;;;;;;;4947039;28;21282;-76
2022/08/26 11:07:44;;;;;;;2.35;1.70;;;;;;;;;;4945477;28;20023;-76
2022/08/26 11:10:17;;;;;;;2.78;1.90;;;;;;;;;;4943308;28;20051;-76
2022/08/26 11:12:46;;;;;;;2.08;1.88;;;;;;;;;;4946010;28;20518;-77
2022/08/26 11:15:14;;;;;;;2.13;1.85;;;;;;;;;;4950107;28;20051;-75
2022/08/26 11:17:43;;;;;;;2.13;1.90;;;;;;;;;;4962188;28;20031;-76
2022/08/26 11:20:10;;;;;;;4.80;2.10;;;;;;;;;;4943291;28;20039;-76
2022/08/26 11:22:41;;;;;;;2.20;2.00;;;;;;;;;;4944077;28;20318;-75
2022/08/26 11:25:14;;;;;;;1.80;1.70;;;;;;;;;;4944189;28;20086;-74
2022/08/26 11:27:40;;;;;;;2.90;2.10;;;;;;;;;;4961318;28;20023;-75
2022/08/26 11:30:09;;;;;;;3.45;2.00;;;;;;;;;;4945066;28;20450;-75
2022/08/26 11:32:38;;;;;;;6.40;2.65;;;;;;;;;;4945565;28;20106;-75
2022/08/26 11:35:06;;;;;;;3.60;2.25;;;;;;;;;;4945306;28;20060;-74
2022/08/26 11:37:56;;;;;;;2.88;2.05;;;;;;;;;;4946499;28;20027;-77
2022/08/26 11:40:26;;;;;;;2.17;1.75;;;;;;;;;;4950616;28;20039;-75
2022/08/26 11:42:55;;;;;;;3.47;1.60;;;;;;;;;;4948636;28;20039;-75
2022/08/26 11:45:27;;;;;;;2.38;1.70;;;;;;;;;;4948467;28;20031;-76
2022/08/26 11:47:53;;;;;;;1.98;1.58;;;;;;;;;;4945481;28;20400;-75
2022/08/26 11:50:27;;;;;;;1.70;1.60;;;;;;;;;;4945559;28;20366;-77
2022/08/26 11:52:55;;;;;;;1.90;1.75;;;;;;;;;;4947043;28;20027;-76
2022/08/26 11:55:21;;;;;;;2.92;1.60;;;;;;;;;;4941453;28;20031;-76
2022/08/26 11:57:49;;;;;;;1.63;1.50;;;;;;;;;;4944629;28;20034;-76
2022/08/26 12:00:30;;;;;;;1.25;1.20;;;;;;;;;;4945427;28;20825;-76
2022/08/26 12:03:01;;;;;;;1.60;1.40;;;;;;;;;;4948606;28;20175;-76
2022/08/26 12:05:34;;;;;;;1.73;1.60;;;;;;;;;;4946783;28;20062;-75
2022/08/26 12:08:03;;;;;;;2.33;1.35;;;;;;;;;;4946112;28;20055;-79
2022/08/26 12:10:31;;;;;;;1.45;1.35;;;;;;;;;;4953061;28;20034;-79
2022/08/26 12:12:58;;;;;;;1.50;1.40;;;;;;;;;;4942237;28;20514;-78
2022/08/26 12:15:25;;;;;;;4.22;1.75;;;;;;;;;;4946442;28;20087;-78
2022/08/26 12:17:51;;;;;;;1.42;1.33;;;;;;;;;;4953455;28;20038;-78
2022/08/26 12:20:19;;;;;;;1.15;1.15;;;;;;;;;;4944634;28;20446;-79
2022/08/26 12:22:46;;;;;;;1.48;1.38;;;;;;;;;;4948410;28;20043;-78
2022/08/26 12:25:12;;;;;;;2.38;1.65;;;;;;;;;;4946917;28;20086;-78
2022/08/26 12:27:40;;;;;;;1.80;1.58;;;;;;;;;;4947191;28;21118;-78
2022/08/26 12:30:11;;;;;;;2.72;1.80;;;;;;;;;;4945642;28;20024;-79
2022/08/26 12:32:38;;;;;;;2.85;1.70;;;;;;;;;;4945876;28;20019;-78
2022/08/26 12:35:07;;;;;;;2.92;1.70;;;;;;;;;;4944696;28;20075;-79
2022/08/26 12:37:34;;;;;;;2.83;1.80;;;;;;;;;;4963506;28;20046;-78
2022/08/26 12:40:19;;;;;;;3.17;1.80;;;;;;;;;;4944270;28;20726;-78
2022/08/26 12:42:45;;;;;;;4.35;2.00;;;;;;;;;;4944344;28;20063;-79
2022/08/26 12:45:11;;;;;;;1.98;1.70;;;;;;;;;;4943223;28;20032;-79
2022/08/26 12:47:41;;;;;;;2.95;1.80;;;;;;;;;;4942753;28;20054;-81
2022/08/26 12:50:07;;;;;;;2.45;1.67;;;;;;;;;;4940080;28;20049;-79
2022/08/26 12:52:34;;;;;;;3.60;1.60;;;;;;;;;;4942098;28;20027;-79
2022/08/26 12:55:04;;;;;;;4.70;1.83;;;;;;;;;;4943532;28;20039;-78
2022/08/26 12:57:33;;;;;;;2.13;1.80;;;;;;;;;;4944501;28;20430;-78
2022/08/26 13:00:18;;;;;;;3.83;1.77;;;;;;;;;;4944508;28;20481;-79
2022/08/26 13:02:45;;;;;;;2.97;1.67;;;;;;;;;;4943857;28;20035;-78
2022/08/26 13:05:19;;;;;;;3.15;2.03;;;;;;;;;;4946011;28;20146;-78
2022/08/26 13:08:05;;;;;;;2.70;1.45;;;;;;;;;;4944466;28;20093;-77
2022/08/26 13:10:38;;;;;;;4.80;1.70;;;;;;;;;;4948945;28;20023;-78
2022/08/26 13:13:04;;;;;;;2.70;1.50;;;;;;;;;;4945252;28;20050;-77
2022/08/26 13:15:30;;;;;;;1.67;1.50;;;;;;;;;;4944880;28;20058;-77
2022/08/26 13:17:57;;;;;;;1.50;1.40;;;;;;;;;;4948871;28;20041;-78
2022/08/26 13:20:23;;;;;;;3.17;1.60;;;;;;;;;;4944355;28;20039;-78
2022/08/26 13:22:49;;;;;;;4.10;1.70;;;;;;;;;;4944025;28;20094;-79
2022/08/26 13:25:16;;;;;;;2.83;1.55;;;;;;;;;;4941569;28;20042;-79
2022/08/26 13:27:43;;;;;;;2.95;1.83;;;;;;;;;;4942864;28;20671;-79
2022/08/26 13:30:11;;;;;;;2.03;1.83;;;;;;;;;;4943634;28;20042;-78
2022/08/26 13:32:37;;;;;;;3.22;1.80;;;;;;;;;;4945627;28;20023;-78
2022/08/26 13:35:03;;;;;;;4.05;1.90;;;;;;;;;;4946310;28;20047;-78
2022/08/26 13:37:29;;;;;;;4.97;2.05;;;;;;;;;;4950658;28;20038;-77
2022/08/26 13:39:55;;;;;;;3.55;2.13;;;;;;;;;;4949786;28;20106;-78
2022/08/26 13:42:21;;;;;;;4.38;1.80;;;;;;;;;;4949952;28;20094;-78
2022/08/26 13:44:56;;;;;;;2.13;1.70;;;;;;;;;;4951176;28;20033;-77
2022/08/26 13:47:24;;;;;;;2.53;1.75;;;;;;;;;;4949415;28;20028;-77
2022/08/26 13:49:50;;;;;;;2.97;1.80;;;;;;;;;;4951452;28;20031;-79
2022/08/26 13:52:16;;;;;;;2.10;1.70;;;;;;;;;;4952285;28;20039;-77
2022/08/26 13:54:42;;;;;;;2.53;1.70;;;;;;;;;;4949802;28;20035;-78
2022/08/26 13:57:08;;;;;;;5.00;1.90;;;;;;;;;;4949986;28;20911;-77
2022/08/26 13:59:34;;;;;;;4.60;1.65;;;;;;;;;;4949024;28;20030;-77
2022/08/26 14:02:02;;;;;;;2.72;1.80;;;;;;;;;;4947640;28;20300;-79
2022/08/26 14:04:28;;;;;;;3.10;1.70;;;;;;;;;;4946226;28;20031;-78
2022/08/26 14:06:55;;;;;;;2.00;1.80;;;;;;;;;;4943921;28;20090;-80
2022/08/26 14:09:21;;;;;;;3.20;1.90;;;;;;;;;;4949921;28;20128;-79
2022/08/26 14:11:47;;;;;;;6.68;1.80;;;;;;;;;;4946549;28;20023;-78
2022/08/26 14:14:13;;;;;;;2.88;1.73;;;;;;;;;;4946121;28;20058;-79
2022/08/26 14:16:40;;;;;;;3.28;1.70;;;;;;;;;;4944352;28;20491;-79
2022/08/26 14:19:07;;;;;;;4.30;1.80;;;;;;;;;;4944497;28;20514;-79
2022/08/26 14:21:34;;;;;;;2.20;1.77;;;;;;;;;;4946572;28;20050;-78
2022/08/26 14:24:00;;;;;;;4.28;2.00;;;;;;;;;;4947053;28;20027;-77
2022/08/26 14:26:27;;;;;;;3.05;1.67;;;;;;;;;;4945900;28;20035;-78
2022/08/26 14:28:54;;;;;;;3.45;2.00;;;;;;;;;;4944231;28;20038;-78
2022/08/26 14:31:22;;;;;;;3.92;1.88;;;;;;;;;;4947575;28;20478;-78
2022/08/26 14:33:58;;;;;;;3.85;2.15;;;;;;;;;;4946003;28;20023;-77
2022/08/26 14:36:27;;;;;;;2.67;1.60;;;;;;;;;;4946994;28;20035;-78
2022/08/26 14:38:59;;;;;;;3.63;1.80;;;;;;;;;;4946783;28;20114;-77
2022/08/26 14:41:26;;;;;;;3.55;1.63;;;;;;;;;;4947762;28;20027;-78
2022/08/26 14:43:58;;;;;;;3.10;1.80;;;;;;;;;;4945256;28;20027;-79
2022/08/26 14:46:27;;;;;;;2.80;1.83;;;;;;;;;;4945958;28;20048;-78
2022/08/26 14:48:54;;;;;;;2.85;1.40;;;;;;;;;;4942485;28;20026;-79
2022/08/26 14:51:20;;;;;;;1.65;1.45;;;;;;;;;;4946139;28;20059;-78
2022/08/26 14:56:32;;;;;;;3.55;1.83;;;;;;;;;;4946025;28;20037;-78
2022/08/26 14:59:01;;;;;;;3.08;1.75;;;;;;;;;;4942756;28;20035;-77
2022/08/26 15:01:28;;;;;;;4.45;1.83;;;;;;;;;;4945441;28;20027;-77
2022/08/26 15:03:55;;;;;;;5.05;2.10;;;;;;;;;;4946478;28;20052;-78